createdAt,value
2022-11-24T00:01:24.961Z,2.63
2022-11-24T00:03:58.743Z,2.90
2022-11-24T00:06:29.726Z,3.13
2022-11-24T00:08:59.100Z,2.60
2022-11-24T00:11:30.262Z,3.07
2022-11-24T00:14:00.035Z,2.37
2022-11-24T00:16:30.640Z,2.83
2022-11-24T00:19:02.659Z,2.90
2022-11-24T00:21:33.822Z,2.93
2022-11-24T00:24:02.156Z,2.77
2022-11-24T00:26:32.543Z,2.47
2022-11-24T00:29:02.973Z,2.60
2022-11-24T00:31:34.341Z,2.90
2022-11-24T00:34:05.760Z,2.07
2022-11-24T00:36:37.376Z,2.87
2022-11-24T00:39:08.230Z,3.07
2022-11-24T00:41:38.355Z,2.53
2022-11-24T00:44:07.287Z,3.00
2022-11-24T00:46:36.086Z,2.40
2022-11-24T00:49:28.990Z,2.70
2022-11-24T00:51:58.559Z,2.97
2022-11-24T00:54:26.827Z,2.90
2022-11-24T00:56:55.040Z,2.93
2022-11-24T00:59:23.389Z,3.47
2022-11-24T01:01:55.490Z,3.13
2022-11-24T01:07:17.948Z,3.10
2022-11-24T01:09:46.862Z,3.33
2022-11-24T01:12:15.086Z,3.63
2022-11-24T01:14:43.390Z,2.53
2022-11-24T01:17:11.579Z,2.50
2022-11-24T01:19:39.875Z,3.40
2022-11-24T01:22:08.211Z,2.90
2022-11-24T01:24:37.810Z,2.73
2022-11-24T01:27:06.050Z,2.90
2022-11-24T01:29:34.280Z,3.10
2022-11-24T01:32:02.554Z,3.00
2022-11-24T01:34:31.035Z,3.83
2022-11-24T01:36:59.401Z,2.20
2022-11-24T01:39:27.659Z,2.23
2022-11-24T01:41:57.240Z,2.60
2022-11-24T01:44:27.788Z,2.57
2022-11-24T01:47:00.015Z,2.93
2022-11-24T01:49:39.091Z,2.70
2022-11-24T01:52:11.875Z,3.17
2022-11-24T01:54:45.750Z,2.83
2022-11-24T01:57:21.217Z,3.13
2022-11-24T01:59:53.199Z,3.10
2022-11-24T02:02:27.879Z,3.30
2022-11-24T02:04:57.288Z,2.20
2022-11-24T02:07:26.390Z,2.93
2022-11-24T02:09:58.003Z,2.67
2022-11-24T02:12:28.640Z,2.40
2022-11-24T02:14:57.874Z,2.67
2022-11-24T02:17:26.115Z,2.83
2022-11-24T02:19:58.729Z,3.07
2022-11-24T02:22:34.995Z,2.90
2022-11-24T02:25:14.198Z,3.20
2022-11-24T02:27:50.744Z,2.73
2022-11-24T02:30:21.953Z,2.67
2022-11-24T02:32:50.596Z,2.10
2022-11-24T02:35:19.756Z,2.70
2022-11-24T02:37:48.572Z,2.67
2022-11-24T02:40:18.115Z,2.70
2022-11-24T02:42:48.323Z,2.80
2022-11-24T02:45:17.441Z,3.00
2022-11-24T02:47:46.009Z,2.73
2022-11-24T02:50:14.420Z,2.57
2022-11-24T02:52:42.753Z,2.67
2022-11-24T02:55:11.059Z,2.87
2022-11-24T02:57:39.302Z,2.70
2022-11-24T03:00:11.211Z,2.40
2022-11-24T03:02:40.558Z,2.60
2022-11-24T03:05:11.884Z,2.23
2022-11-24T03:07:40.172Z,2.87
2022-11-24T03:10:09.013Z,2.60
2022-11-24T03:12:37.304Z,3.10
2022-11-24T03:15:09.277Z,2.50
2022-11-24T03:17:37.518Z,2.77
2022-11-24T03:20:06.603Z,2.77
2022-11-24T03:22:34.856Z,3.03
2022-11-24T03:25:03.193Z,2.83
2022-11-24T03:27:34.083Z,3.80
2022-11-24T03:30:03.019Z,2.50
2022-11-24T03:32:32.701Z,2.93
2022-11-24T03:35:01.061Z,3.77
2022-11-24T03:37:29.333Z,2.97
2022-11-24T03:39:57.599Z,3.70
2022-11-24T03:42:25.845Z,3.03
2022-11-24T03:44:54.164Z,2.57
2022-11-24T03:47:22.387Z,2.80
2022-11-24T03:49:51.990Z,4.00
2022-11-24T03:52:20.248Z,2.53
2022-11-24T03:54:48.799Z,5.53
2022-11-24T03:57:16.982Z,3.00
2022-11-24T03:59:45.217Z,2.70
2022-11-24T04:02:13.557Z,2.60
2022-11-24T04:04:45.781Z,3.27
2022-11-24T04:07:18.573Z,2.73
2022-11-24T04:09:46.962Z,2.30
2022-11-24T04:12:32.860Z,2.83
2022-11-24T04:15:01.217Z,2.70
2022-11-24T04:17:29.940Z,2.53
2022-11-24T04:19:58.188Z,2.60
2022-11-24T04:22:27.856Z,2.60
2022-11-24T04:24:56.137Z,1.87
2022-11-24T04:27:24.367Z,2.27
2022-11-24T04:29:52.591Z,1.93
2022-11-24T04:32:20.873Z,2.47
2022-11-24T04:34:49.830Z,2.77
2022-11-24T04:37:18.448Z,2.87
2022-11-24T04:39:48.009Z,2.43
2022-11-24T04:42:16.311Z,2.13
2022-11-24T04:44:44.599Z,2.60
2022-11-24T04:47:16.673Z,2.07
2022-11-24T04:49:44.896Z,2.13
2022-11-24T04:52:13.209Z,2.50
2022-11-24T04:54:41.504Z,2.33
2022-11-24T04:57:16.766Z,2.57
2022-11-24T04:59:45.095Z,2.07
2022-11-24T05:02:13.936Z,2.53
2022-11-24T05:04:42.572Z,2.97
2022-11-24T05:07:18.680Z,2.80
2022-11-24T05:10:06.783Z,1.83
2022-11-24T05:12:36.458Z,2.60
2022-11-24T05:15:07.619Z,3.33
2022-11-24T05:17:38.455Z,3.20
2022-11-24T05:20:08.852Z,3.00
2022-11-24T05:22:37.243Z,2.90
2022-11-24T05:25:05.895Z,2.83
2022-11-24T05:27:34.138Z,2.70
2022-11-24T05:30:03.881Z,2.57
2022-11-24T05:32:32.108Z,2.17
2022-11-24T05:35:02.228Z,1.80
2022-11-24T05:37:30.828Z,2.00
2022-11-24T05:40:09.111Z,1.60
2022-11-24T05:42:47.626Z,2.30
2022-11-24T05:45:20.410Z,2.00
2022-11-24T05:47:49.867Z,1.77
2022-11-24T05:50:20.750Z,1.70
2022-11-24T05:52:49.727Z,1.87
2022-11-24T05:55:19.488Z,1.73
2022-11-24T05:57:47.920Z,1.80
2022-11-24T06:00:20.185Z,1.93
2022-11-24T06:02:49.191Z,2.50
2022-11-24T06:05:17.729Z,2.17
2022-11-24T06:07:46.300Z,1.80
2022-11-24T06:10:15.447Z,1.90
2022-11-24T06:12:43.704Z,2.43
2022-11-24T06:15:12.642Z,1.80
2022-11-24T06:17:42.344Z,2.07
2022-11-24T06:20:12.393Z,2.53
2022-11-24T06:22:41.131Z,2.97
2022-11-24T06:25:10.907Z,2.77
2022-11-24T06:27:39.181Z,3.73
2022-11-24T06:30:09.141Z,3.60
2022-11-24T06:32:37.383Z,3.47
2022-11-24T06:35:07.956Z,2.80
2022-11-24T06:37:38.109Z,2.70
2022-11-24T06:40:09.008Z,3.47
2022-11-24T06:42:37.787Z,3.50
2022-11-24T06:45:09.402Z,3.47
2022-11-24T06:47:38.302Z,3.70
2022-11-24T06:50:10.564Z,3.90
2022-11-24T06:52:38.832Z,3.60
2022-11-24T06:55:08.730Z,3.83
2022-11-24T06:57:37.122Z,2.83
2022-11-24T07:00:07.831Z,3.63
2022-11-24T07:02:38.023Z,2.90
2022-11-24T07:05:11.299Z,2.50
2022-11-24T07:07:39.658Z,2.83
2022-11-24T07:10:09.361Z,2.70
2022-11-24T07:12:37.546Z,3.10
2022-11-24T07:15:07.437Z,3.27
2022-11-24T07:17:37.839Z,2.93
2022-11-24T07:20:07.729Z,3.10
2022-11-24T07:22:37.298Z,2.40
2022-11-24T07:25:07.454Z,2.87
2022-11-24T07:27:35.710Z,3.13
2022-11-24T07:30:04.447Z,2.90
2022-11-24T07:32:34.084Z,2.60
2022-11-24T07:35:02.299Z,2.40
2022-11-24T07:37:31.841Z,4.13
2022-11-24T07:40:01.716Z,2.90
2022-11-24T07:42:29.929Z,2.33
2022-11-24T07:44:58.143Z,2.77
2022-11-24T07:47:26.392Z,2.03
2022-11-24T07:49:55.323Z,2.33
2022-11-24T07:52:26.550Z,2.43
2022-11-24T07:54:54.841Z,2.43
2022-11-24T07:57:24.514Z,2.83
2022-11-24T07:59:52.759Z,2.50
2022-11-24T08:02:20.998Z,2.80
2022-11-24T08:04:49.229Z,2.70
2022-11-24T08:07:17.512Z,2.10
2022-11-24T08:09:45.778Z,2.63
2022-11-24T08:12:13.985Z,2.03
2022-11-24T08:14:43.610Z,2.87
2022-11-24T08:17:11.840Z,2.63
2022-11-24T08:19:40.129Z,2.73
2022-11-24T08:22:08.340Z,2.40
2022-11-24T08:24:36.903Z,2.70
2022-11-24T08:27:05.498Z,2.73
2022-11-24T08:29:33.778Z,2.93
2022-11-24T08:32:03.401Z,2.77
2022-11-24T08:34:31.854Z,2.30
2022-11-24T08:37:00.158Z,2.70
2022-11-24T08:39:28.400Z,3.07
2022-11-24T08:41:56.665Z,2.30
2022-11-24T08:44:25.067Z,1.97
2022-11-24T08:46:55.495Z,2.83
2022-11-24T08:49:25.196Z,2.00
2022-11-24T08:51:53.472Z,2.57
2022-11-24T08:54:21.812Z,3.43
2022-11-24T08:56:51.095Z,3.40
2022-11-24T08:59:19.469Z,2.47
2022-11-24T09:01:47.917Z,1.63
2022-11-24T09:04:16.325Z,1.83
2022-11-24T09:06:46.251Z,2.20
2022-11-24T09:09:14.599Z,2.17
2022-11-24T09:11:42.970Z,2.27
2022-11-24T09:14:11.196Z,1.90
2022-11-24T09:16:39.515Z,1.90
2022-11-24T09:19:09.017Z,2.33
2022-11-24T09:21:38.952Z,1.93
2022-11-24T09:24:09.595Z,1.93
2022-11-24T09:26:44.545Z,1.83
2022-11-24T09:29:15.888Z,2.70
2022-11-24T09:31:44.570Z,1.90
2022-11-24T09:34:15.931Z,1.73
2022-11-24T09:36:44.275Z,2.10
2022-11-24T09:39:13.930Z,1.70
2022-11-24T09:42:07.812Z,2.03
2022-11-24T09:45:26.327Z,1.80
2022-11-24T09:48:10.205Z,1.60
2022-11-24T09:50:39.801Z,2.00
2022-11-24T09:53:15.422Z,1.73
2022-11-24T09:55:48.434Z,1.47
2022-11-24T09:58:32.759Z,1.30
2022-11-24T10:01:03.043Z,1.23
2022-11-24T10:03:37.376Z,1.70
2022-11-24T10:06:19.110Z,1.30
2022-11-24T10:09:07.478Z,1.60
2022-11-24T10:11:44.788Z,1.40
2022-11-24T10:15:24.539Z,1.50
2022-11-24T10:18:38.884Z,1.43
2022-11-24T10:21:33.914Z,1.47
2022-11-24T10:24:21.221Z,1.20
2022-11-24T10:26:57.935Z,2.23
2022-11-24T10:29:31.277Z,4.30
2022-11-24T10:31:59.640Z,1.53
2022-11-24T10:34:35.518Z,1.70
2022-11-24T10:37:13.060Z,1.33
2022-11-24T10:39:50.544Z,1.20
2022-11-24T10:42:27.908Z,1.00
2022-11-24T10:45:04.695Z,1.10
2022-11-24T10:47:33.129Z,1.27
2022-11-24T10:50:15.235Z,1.10
2022-11-24T10:52:49.186Z,1.27
2022-11-24T10:55:18.022Z,1.30
2022-11-24T10:57:47.627Z,1.37
2022-11-24T11:00:35.868Z,1.63
2022-11-24T11:03:20.705Z,1.40
2022-11-24T11:05:55.181Z,1.33
2022-11-24T11:08:27.204Z,1.43
2022-11-24T11:11:22.335Z,1.20
2022-11-24T11:14:03.154Z,1.30
2022-11-24T11:16:37.166Z,1.20
2022-11-24T11:19:48.416Z,2.30
2022-11-24T11:22:26.178Z,2.27
2022-11-24T11:25:15.991Z,1.47
2022-11-24T11:27:44.276Z,1.40
2022-11-24T11:36:13.024Z,1.67
2022-11-24T11:38:42.769Z,1.10
2022-11-24T11:41:23.084Z,1.40
2022-11-24T11:44:02.137Z,2.00
2022-11-24T11:46:33.726Z,1.40
2022-11-24T11:49:02.336Z,2.10
2022-11-24T11:51:45.919Z,1.50
2022-11-24T11:54:28.183Z,2.00
2022-11-24T11:57:08.995Z,1.53
2022-11-24T11:59:59.579Z,1.60
2022-11-24T12:03:06.321Z,1.27
2022-11-24T12:05:51.815Z,1.20
2022-11-24T12:08:55.863Z,1.50
2022-11-24T12:11:34.126Z,1.70
2022-11-24T12:14:18.822Z,25.77
2022-11-24T12:17:00.278Z,1.90
2022-11-24T12:19:59.786Z,1.60
2022-11-24T12:22:39.852Z,2.73
2022-11-24T12:25:24.935Z,2.30
2022-11-24T12:28:04.548Z,1.47
2022-11-24T12:30:42.549Z,2.97
2022-11-24T12:33:31.579Z,2.27
2022-11-24T12:36:10.682Z,2.07
2022-11-24T12:38:51.810Z,1.93
2022-11-24T12:41:41.800Z,1.80
2022-11-24T12:44:32.093Z,1.73
2022-11-24T12:47:10.557Z,1.70
2022-11-24T12:49:50.073Z,1.63
2022-11-24T12:52:27.398Z,1.63
2022-11-24T12:54:56.979Z,1.33
2022-11-24T12:57:32.113Z,1.40
2022-11-24T13:00:06.678Z,1.33
2022-11-24T13:03:10.408Z,2.07
2022-11-24T13:05:49.612Z,1.33
2022-11-24T13:08:20.402Z,1.50
2022-11-24T13:13:58.931Z,1.67
2022-11-24T13:16:36.294Z,1.47
2022-11-24T13:19:14.898Z,1.83
2022-11-24T13:22:01.133Z,1.80
2022-11-24T13:24:33.840Z,2.37
2022-11-24T13:27:42.575Z,2.50
2022-11-24T13:30:59.042Z,1.80
2022-11-24T13:33:38.678Z,2.00
2022-11-24T13:36:32.960Z,1.90
2022-11-24T13:39:03.869Z,1.47
2022-11-24T13:42:42.994Z,1.40
2022-11-24T13:45:02.150Z,2.20
2022-11-24T13:47:45.149Z,2.20
2022-11-24T13:51:09.290Z,1.93
2022-11-24T13:53:43.163Z,2.00
2022-11-24T13:56:26.458Z,3.00
2022-11-24T13:59:00.875Z,4.00
2022-11-24T14:01:31.616Z,2.77
2022-11-24T14:07:07.467Z,2.70
2022-11-24T14:09:42.716Z,2.20
2022-11-24T14:12:16.334Z,2.23
2022-11-24T14:14:48.355Z,2.30
2022-11-24T14:17:21.109Z,2.23
2022-11-24T14:19:52.000Z,1.90
2022-11-24T14:22:22.917Z,2.47
2022-11-24T14:24:56.855Z,1.77
2022-11-24T14:27:31.574Z,3.30
2022-11-24T14:30:03.097Z,5.67
2022-11-24T14:32:31.394Z,3.23
2022-11-24T14:34:59.783Z,3.73
2022-11-24T14:37:28.284Z,2.87
2022-11-24T14:39:56.536Z,3.50
2022-11-24T14:42:27.256Z,6.23
2022-11-24T14:44:59.156Z,3.60
2022-11-24T14:47:32.443Z,3.60
2022-11-24T14:50:12.531Z,4.03
2022-11-24T14:52:54.241Z,4.70
2022-11-24T14:55:29.059Z,16.43
2022-11-24T14:57:58.018Z,2.73
2022-11-24T15:00:32.328Z,3.83
2022-11-24T15:04:09.745Z,7.20
2022-11-24T15:06:43.027Z,4.27
2022-11-24T15:09:27.982Z,4.87
2022-11-24T15:11:57.084Z,3.57
2022-11-24T15:14:51.306Z,2.70
2022-11-24T15:17:23.030Z,3.13
2022-11-24T15:19:57.003Z,3.07
2022-11-24T15:22:40.445Z,3.20
2022-11-24T15:25:33.340Z,3.23
2022-11-24T15:28:02.087Z,3.40
2022-11-24T15:30:31.660Z,2.97
2022-11-24T15:33:00.977Z,3.73
2022-11-24T15:35:32.993Z,3.97
2022-11-24T15:38:02.800Z,3.93
2022-11-24T15:40:31.766Z,5.43
2022-11-24T15:43:04.989Z,6.43
2022-11-24T15:45:36.210Z,9.83
2022-11-24T15:48:04.534Z,6.00
2022-11-24T15:50:32.814Z,5.20
2022-11-24T15:53:02.451Z,5.27
2022-11-24T15:55:30.709Z,5.27
2022-11-24T15:57:58.990Z,10.27
2022-11-24T16:00:27.381Z,6.23
2022-11-24T16:02:55.621Z,4.47
2022-11-24T16:05:23.895Z,4.53
2022-11-24T16:07:52.131Z,4.80
2022-11-24T16:10:27.252Z,4.93
2022-11-24T16:12:55.482Z,10.93
2022-11-24T16:15:23.816Z,4.87
2022-11-24T16:17:52.385Z,4.13
2022-11-24T16:20:20.863Z,5.70
2022-11-24T16:22:49.217Z,4.37
2022-11-24T16:25:17.695Z,4.10
2022-11-24T16:27:47.268Z,4.17
2022-11-24T16:30:15.985Z,3.97
2022-11-24T16:32:45.296Z,4.27
2022-11-24T16:35:13.529Z,3.17
2022-11-24T16:37:41.751Z,2.87
2022-11-24T16:40:11.429Z,2.73
2022-11-24T16:42:39.666Z,2.87
2022-11-24T16:45:13.141Z,2.90
2022-11-24T16:47:42.087Z,3.87
2022-11-24T16:50:12.343Z,3.43
2022-11-24T16:52:40.702Z,4.30
2022-11-24T16:55:11.691Z,7.73
2022-11-24T16:57:39.900Z,8.40
2022-11-24T17:00:12.016Z,7.07
2022-11-24T17:02:40.423Z,6.30
2022-11-24T17:05:09.791Z,4.83
2022-11-24T17:07:38.223Z,4.20
2022-11-24T17:10:08.832Z,3.80
2022-11-24T17:12:37.738Z,5.23
2022-11-24T17:18:23.413Z,4.67
2022-11-24T17:20:48.110Z,5.50
2022-11-24T17:23:17.248Z,7.47
2022-11-24T17:25:45.521Z,9.23
2022-11-24T17:28:13.805Z,8.47
2022-11-24T17:30:43.627Z,12.70
2022-11-24T17:33:11.926Z,11.03
2022-11-24T17:35:40.180Z,16.37
2022-11-24T17:38:08.404Z,14.60
2022-11-24T17:40:36.590Z,11.00
2022-11-24T17:43:04.850Z,7.60
2022-11-24T17:45:33.567Z,6.67
2022-11-24T17:48:03.151Z,6.43
2022-11-24T17:50:31.413Z,4.20
2022-11-24T17:52:59.619Z,4.50
2022-11-24T17:55:27.874Z,3.63
2022-11-24T17:57:57.343Z,8.33
2022-11-24T18:00:25.801Z,11.50
2022-11-24T18:02:53.977Z,9.30
2022-11-24T18:05:23.591Z,6.00
2022-11-24T18:07:51.894Z,5.80
2022-11-24T18:10:20.511Z,9.70
2022-11-24T18:12:48.765Z,7.80
2022-11-24T18:15:17.623Z,12.07
2022-11-24T18:17:45.902Z,11.87
2022-11-24T18:20:14.666Z,11.70
2022-11-24T18:23:12.344Z,11.43
2022-11-24T18:25:33.236Z,14.27
2022-11-24T18:28:01.509Z,15.07
2022-11-24T18:30:29.770Z,15.60
2022-11-24T18:32:59.819Z,11.20
2022-11-24T18:35:28.072Z,9.23
2022-11-24T18:37:57.686Z,9.30
2022-11-24T18:40:26.000Z,6.57
2022-11-24T18:42:54.299Z,4.87
2022-11-24T18:45:22.520Z,7.00
2022-11-24T18:47:50.731Z,8.27
2022-11-24T18:50:19.724Z,14.87
2022-11-24T18:52:47.924Z,13.70
2022-11-24T18:55:17.662Z,16.17
2022-11-24T18:57:45.887Z,17.97
2022-11-24T19:00:15.479Z,13.37
2022-11-24T19:02:43.717Z,16.80
2022-11-24T19:05:13.735Z,16.60
2022-11-24T19:07:42.047Z,12.47
2022-11-24T19:10:12.235Z,12.43
2022-11-24T19:12:41.779Z,13.00
2022-11-24T19:15:10.998Z,12.83
2022-11-24T19:17:39.186Z,10.63
2022-11-24T19:20:09.020Z,17.57
2022-11-24T19:22:37.270Z,15.40
2022-11-24T19:25:07.728Z,12.20
2022-11-24T19:27:36.220Z,9.33
2022-11-24T19:30:07.635Z,7.00
2022-11-24T19:32:35.887Z,6.07
2022-11-24T19:35:04.689Z,4.43
2022-11-24T19:37:35.005Z,5.70
2022-11-24T19:40:08.701Z,6.43
2022-11-24T19:42:37.599Z,9.33
2022-11-24T19:45:09.139Z,14.27
2022-11-24T19:47:37.424Z,22.33
2022-11-24T19:50:10.404Z,25.27
2022-11-24T19:52:38.976Z,15.70
2022-11-24T19:55:08.110Z,9.70
2022-11-24T19:57:36.451Z,7.23
2022-11-24T20:00:08.038Z,8.50
2022-11-24T20:02:36.402Z,7.70
2022-11-24T20:05:05.041Z,7.50
2022-11-24T20:07:33.338Z,5.77
2022-11-24T20:10:07.371Z,5.57
2022-11-24T20:12:36.066Z,5.03
2022-11-24T20:15:06.646Z,5.10
2022-11-24T20:17:34.847Z,4.80
2022-11-24T20:20:03.127Z,5.23
2022-11-24T20:22:31.710Z,6.40
2022-11-24T20:24:59.902Z,4.50
2022-11-24T20:27:28.366Z,3.60
2022-11-24T20:29:56.662Z,5.40
2022-11-24T20:32:26.309Z,6.43
2022-11-24T20:34:54.525Z,5.43
2022-11-24T20:37:23.342Z,5.20
2022-11-24T20:39:52.192Z,5.07
2022-11-24T20:42:20.555Z,5.20
2022-11-24T20:44:48.857Z,4.13
2022-11-24T20:47:17.039Z,4.10
2022-11-24T20:49:46.677Z,3.70
2022-11-24T20:52:14.899Z,4.37
2022-11-24T20:54:46.682Z,4.63
2022-11-24T20:57:15.235Z,5.40
2022-11-24T20:59:43.513Z,4.60
2022-11-24T21:02:16.290Z,5.20
2022-11-24T21:04:50.826Z,4.80
2022-11-24T21:07:19.090Z,4.77
2022-11-24T21:09:47.341Z,4.83
2022-11-24T21:12:15.551Z,4.73
2022-11-24T21:14:43.788Z,4.50
2022-11-24T21:17:12.498Z,4.63
2022-11-24T21:19:40.747Z,4.30
2022-11-24T21:22:10.399Z,4.27
2022-11-24T21:24:38.613Z,4.27
2022-11-24T21:27:06.850Z,4.57
2022-11-24T21:29:35.064Z,4.30
2022-11-24T21:32:03.356Z,3.73
2022-11-24T21:34:31.724Z,4.40
2022-11-24T21:36:59.951Z,4.13
2022-11-24T21:39:30.035Z,5.17
2022-11-24T21:41:58.661Z,4.37
2022-11-24T21:44:27.048Z,4.57
2022-11-24T21:46:56.224Z,4.53
2022-11-24T21:49:24.691Z,4.50
2022-11-24T21:51:56.359Z,6.00
2022-11-24T21:54:25.617Z,4.87
2022-11-24T21:56:55.920Z,5.07
2022-11-24T21:59:24.361Z,4.80
2022-11-24T22:01:52.746Z,4.57
2022-11-24T22:04:21.081Z,4.53
2022-11-24T22:06:52.173Z,4.33
2022-11-24T22:09:20.734Z,3.80
2022-11-24T22:11:52.035Z,4.30
2022-11-24T22:14:21.706Z,4.37
2022-11-24T22:16:50.004Z,3.97
2022-11-24T22:19:18.584Z,4.40
2022-11-24T22:21:46.841Z,3.50
2022-11-24T22:24:15.101Z,3.73
2022-11-24T22:26:43.339Z,4.30
2022-11-24T22:29:11.766Z,3.73
2022-11-24T22:31:41.539Z,4.10
2022-11-24T22:34:10.095Z,3.93
2022-11-24T22:36:38.348Z,4.20
2022-11-24T22:39:07.858Z,4.90
2022-11-24T22:41:37.075Z,4.07
2022-11-24T22:44:06.112Z,3.70
2022-11-24T22:46:34.576Z,3.60
2022-11-24T22:49:04.397Z,3.90
2022-11-24T22:51:35.323Z,3.87
2022-11-24T22:54:05.530Z,3.50
2022-11-24T22:56:34.363Z,4.83
2022-11-24T22:59:04.524Z,3.97
2022-11-24T23:01:34.614Z,3.60
2022-11-24T23:04:08.257Z,3.97
2022-11-24T23:06:36.553Z,4.20
2022-11-24T23:09:06.613Z,4.70
2022-11-24T23:11:38.721Z,4.00
2022-11-24T23:14:09.339Z,4.53
2022-11-24T23:16:37.604Z,4.70
2022-11-24T23:19:07.491Z,4.57
2022-11-24T23:21:39.239Z,4.10
2022-11-24T23:24:09.230Z,3.97
2022-11-24T23:26:40.185Z,4.17
2022-11-24T23:29:09.383Z,3.90
2022-11-24T23:31:39.962Z,3.77
2022-11-24T23:34:10.181Z,3.70
2022-11-24T23:36:38.607Z,4.00
2022-11-24T23:39:09.052Z,3.83
2022-11-24T23:41:37.526Z,3.40
2022-11-24T23:44:06.298Z,3.53
2022-11-24T23:46:34.797Z,3.27
2022-11-24T23:51:57.035Z,2.60
2022-11-24T23:54:25.293Z,2.87
2022-11-24T23:56:53.561Z,2.47
2022-11-24T23:59:22.787Z,2.73
